Time;durP1;ratioP1;P1;durP2;ratioP2;P2;SDS_P1;SDS_P2;PMS_P1;PMS_P2;Temp;Humidity;BMP_temperature;BMP_pressure;BME280_temperature;BME280_humidity;BME280_pressure;Samples;Min_cycle;Max_cycle;Signal;HPM_P1;HPM_P2
2023/06/20 00:02:27;;;;;;;5.97;5.57;;;19.80;99.90;;;;;;5039020;28;20226;-54
2023/06/20 00:04:54;;;;;;;6.37;5.97;;;19.70;99.90;;;;;;5039617;28;20774;-52
2023/06/20 00:07:23;;;;;;;5.67;5.47;;;19.70;99.90;;;;;;5037339;28;20198;-53
2023/06/20 00:09:49;;;;;;;6.33;5.73;;;19.80;99.90;;;;;;5039695;28;20195;-53
2023/06/20 00:12:18;;;;;;;6.30;5.90;;;19.80;99.90;;;;;;5035982;28;20257;-52
2023/06/20 00:14:45;;;;;;;6.07;5.27;;;19.90;99.90;;;;;;5027035;28;20865;-52
2023/06/20 00:17:13;;;;;;;6.03;5.63;;;19.90;99.90;;;;;;5038570;28;20202;-53
2023/06/20 00:19:41;;;;;;;5.87;5.50;;;20.00;99.90;;;;;;5029038;28;20256;-52
2023/06/20 00:22:08;;;;;;;5.30;4.97;;;20.00;99.90;;;;;;5036069;28;20443;-53
2023/06/20 00:24:34;;;;;;;4.60;4.40;;;20.10;99.90;;;;;;5034495;28;20215;-52
2023/06/20 00:27:02;;;;;;;4.87;4.57;;;20.20;99.90;;;;;;5042305;28;20581;-54
2023/06/20 00:29:30;;;;;;;4.63;4.43;;;20.40;99.90;;;;;;5045762;28;20638;-52
2023/06/20 00:31:57;;;;;;;4.23;3.97;;;20.40;99.90;;;;;;5040190;28;20206;-52
2023/06/20 00:34:25;;;;;;;4.77;4.50;;;20.50;99.90;;;;;;5031290;28;20269;-52
2023/06/20 00:36:52;;;;;;;6.73;4.20;;;20.60;99.90;;;;;;5040399;28;20203;-54
2023/06/20 00:39:19;;;;;;;5.13;4.73;;;20.60;99.90;;;;;;5051558;28;20637;-53
2023/06/20 00:41:46;;;;;;;5.47;4.67;;;20.70;99.90;;;;;;5051528;28;20244;-53
2023/06/20 00:44:13;;;;;;;5.27;4.87;;;20.70;99.90;;;;;;5044703;28;20209;-54
2023/06/20 00:46:42;;;;;;;4.80;4.53;;;20.70;99.90;;;;;;5037899;28;20198;-52
2023/06/20 00:49:11;;;;;;;5.43;4.93;;;20.60;99.90;;;;;;5035694;28;20339;-52
2023/06/20 00:51:39;;;;;;;4.47;4.27;;;20.50;99.90;;;;;;5040757;28;20198;-52
2023/06/20 00:54:06;;;;;;;4.30;4.00;;;20.30;99.90;;;;;;5039315;28;20268;-52
2023/06/20 00:56:33;;;;;;;4.50;4.20;;;20.20;99.90;;;;;;5030097;28;20578;-54
2023/06/20 00:59:03;;;;;;;4.53;4.30;;;20.10;99.90;;;;;;5041139;28;20201;-53
2023/06/20 01:01:31;;;;;;;4.63;4.40;;;20.10;99.90;;;;;;5033922;28;20198;-51
2023/06/20 01:04:01;;;;;;;4.47;4.27;;;20.20;99.90;;;;;;5041485;28;20596;-52
2023/06/20 01:06:36;;;;;;;4.20;3.83;;;20.30;99.90;;;;;;5051390;28;20202;-54
2023/06/20 01:09:11;;;;;;;4.60;4.20;;;20.30;99.90;;;;;;5051540;28;20213;-52
2023/06/20 01:11:46;;;;;;;4.80;4.40;;;20.20;99.90;;;;;;5038562;28;20198;-52
2023/06/20 01:14:20;;;;;;;5.47;5.07;;;20.30;99.90;;;;;;5030864;28;20237;-52
2023/06/20 01:16:58;;;;;;;4.80;4.53;;;20.30;99.90;;;;;;5031394;28;20744;-52
2023/06/20 01:19:49;;;;;;;5.80;5.37;;;20.40;99.90;;;;;;5030437;28;20237;-52
2023/06/20 01:22:33;;;;;;;4.37;4.07;;;20.50;99.90;;;;;;5036947;28;20656;-55
2023/06/20 01:25:06;;;;;;;4.43;4.23;;;20.40;99.90;;;;;;5041279;28;20214;-52
2023/06/20 01:27:38;;;;;;;4.53;4.33;;;20.40;99.90;;;;;;5046503;28;20198;-53
2023/06/20 01:30:11;;;;;;;6.60;6.00;;;20.50;99.90;;;;;;5054901;28;20239;-52
2023/06/20 01:32:43;;;;;;;6.03;5.63;;;20.40;99.90;;;;;;5045559;28;20252;-52
2023/06/20 01:35:15;;;;;;;5.97;5.47;;;20.40;99.90;;;;;;5042833;28;20589;-52
2023/06/20 01:37:46;;;;;;;5.70;5.30;;;20.40;99.90;;;;;;5051223;28;20201;-52
2023/06/20 01:40:19;;;;;;;6.43;5.83;;;20.30;99.90;;;;;;5044303;28;20203;-52
2023/06/20 01:42:47;;;;;;;5.97;5.47;;;20.30;99.90;;;;;;5034774;28;20252;-52
2023/06/20 01:45:16;;;;;;;6.37;5.77;;;20.20;99.90;;;;;;5042584;28;20222;-52
2023/06/20 01:47:45;;;;;;;5.83;5.43;;;20.20;99.90;;;;;;5051312;28;20202;-52
2023/06/20 01:50:13;;;;;;;7.17;6.57;;;20.30;99.90;;;;;;5054464;28;20202;-52
2023/06/20 01:52:42;;;;;;;6.83;6.37;;;20.30;99.90;;;;;;5036043;28;20203;-52
2023/06/20 01:55:11;;;;;;;5.97;5.57;;;20.30;99.90;;;;;;5034136;28;20272;-52
2023/06/20 01:57:40;;;;;;;6.17;5.77;;;20.40;99.90;;;;;;5034389;28;20208;-52
2023/06/20 02:00:11;;;;;;;7.13;6.30;;;20.40;99.90;;;;;;5033837;28;20742;-52
2023/06/20 02:02:38;;;;;;;6.00;5.60;;;20.40;99.90;;;;;;5040822;28;20236;-52
2023/06/20 02:05:08;;;;;;;6.60;6.10;;;20.30;99.90;;;;;;5043897;28;20687;-52
2023/06/20 02:07:36;;;;;;;6.97;6.37;;;20.30;99.90;;;;;;5046031;28;20577;-52
2023/06/20 02:10:04;;;;;;;6.63;5.60;;;20.30;99.90;;;;;;5054247;28;20205;-52
2023/06/20 02:12:33;;;;;;;6.50;5.90;;;20.30;99.90;;;;;;5045350;28;20202;-52
2023/06/20 02:15:00;;;;;;;7.10;6.60;;;20.30;99.90;;;;;;5045360;28;20252;-52
2023/06/20 02:17:29;;;;;;;6.40;5.90;;;20.40;99.90;;;;;;5053841;28;20206;-53
2023/06/20 02:19:56;;;;;;;7.67;6.90;;;20.40;99.90;;;;;;5049426;28;20566;-52
2023/06/20 02:22:26;;;;;;;6.63;6.20;;;20.40;99.90;;;;;;5038582;28;20209;-52
2023/06/20 02:24:56;;;;;;;7.57;6.97;;;20.40;99.90;;;;;;5044955;28;20278;-53
2023/06/20 02:27:27;;;;;;;6.07;5.77;;;20.40;99.90;;;;;;5034093;28;20198;-52
2023/06/20 02:29:57;;;;;;;6.80;6.27;;;20.40;99.90;;;;;;5045178;28;20622;-53
2023/06/20 02:32:29;;;;;;;7.47;6.97;;;20.40;99.90;;;;;;5044145;28;20270;-52
2023/06/20 02:34:57;;;;;;;8.37;6.73;;;20.40;99.90;;;;;;5033250;28;20227;-52
2023/06/20 02:37:29;;;;;;;6.47;5.97;;;20.30;99.90;;;;;;5053484;28;20210;-52
2023/06/20 02:39:56;;;;;;;6.37;5.97;;;20.30;99.90;;;;;;5053558;28;20233;-52
2023/06/20 02:42:26;;;;;;;6.57;6.13;;;20.30;99.90;;;;;;5045180;28;20272;-52
2023/06/20 02:44:53;;;;;;;5.93;5.43;;;20.40;99.90;;;;;;5036483;28;20633;-52
2023/06/20 02:47:33;;;;;;;6.03;5.67;;;20.40;99.90;;;;;;5038348;28;20705;-53
2023/06/20 02:50:12;;;;;;;6.03;5.63;;;20.40;99.90;;;;;;5052412;28;20197;-52
2023/06/20 02:52:48;;;;;;;6.23;5.73;;;20.40;99.90;;;;;;5044898;28;20206;-52
2023/06/20 02:55:22;;;;;;;5.30;5.10;;;20.40;99.90;;;;;;5038649;28;20225;-52
2023/06/20 02:57:53;;;;;;;5.40;5.20;;;20.40;99.90;;;;;;5053325;28;20274;-52
2023/06/20 03:00:22;;;;;;;5.67;5.27;;;20.30;99.90;;;;;;5039718;28;20221;-55
2023/06/20 03:02:56;;;;;;;5.33;5.07;;;20.30;99.90;;;;;;5031801;28;20263;-52
2023/06/20 03:05:25;;;;;;;6.43;6.03;;;20.30;99.90;;;;;;5031987;28;20280;-52
2023/06/20 03:07:55;;;;;;;5.90;5.40;;;20.20;99.90;;;;;;5033115;28;20255;-52
2023/06/20 03:10:22;;;;;;;5.97;5.57;;;20.30;99.90;;;;;;5037320;28;20596;-53
2023/06/20 03:12:51;;;;;;;5.97;5.53;;;20.40;99.90;;;;;;5035370;28;20194;-53
2023/06/20 03:15:18;;;;;;;5.97;5.67;;;20.40;99.90;;;;;;5043640;28;20276;-52
2023/06/20 03:17:45;;;;;;;5.57;5.27;;;20.40;99.90;;;;;;5044454;28;20244;-53
2023/06/20 03:20:13;;;;;;;5.70;5.30;;;20.40;99.90;;;;;;5052581;28;20202;-53
2023/06/20 03:22:40;;;;;;;7.90;7.30;;;20.40;99.90;;;;;;5043093;28;20248;-53
2023/06/20 03:25:08;;;;;;;6.70;6.10;;;20.40;99.90;;;;;;5032715;28;20280;-53
2023/06/20 03:27:35;;;;;;;6.43;6.07;;;20.40;99.90;;;;;;5032812;28;20202;-53
2023/06/20 03:30:04;;;;;;;6.23;5.83;;;20.40;99.90;;;;;;5040037;28;20210;-53
2023/06/20 03:32:31;;;;;;;7.10;6.50;;;20.50;99.90;;;;;;5047260;28;20236;-53
2023/06/20 03:34:58;;;;;;;5.23;4.83;;;20.40;99.90;;;;;;5044124;28;20272;-53
2023/06/20 03:37:26;;;;;;;6.20;5.70;;;20.40;99.90;;;;;;5044210;28;20198;-53
2023/06/20 03:39:53;;;;;;;7.40;5.63;;;20.30;99.90;;;;;;5052494;28;20202;-54
2023/06/20 03:42:22;;;;;;;6.20;5.80;;;20.30;99.90;;;;;;5047502;28;20715;-53
2023/06/20 03:44:49;;;;;;;6.60;6.10;;;20.30;99.90;;;;;;5037082;28;20703;-53
2023/06/20 03:47:16;;;;;;;4.60;4.40;;;20.30;99.90;;;;;;5037107;28;20932;-53
2023/06/20 03:49:42;;;;;;;5.67;5.27;;;20.30;99.90;;;;;;5045345;28;20252;-53
2023/06/20 03:52:09;;;;;;;6.37;5.97;;;20.30;99.90;;;;;;5043813;28;20197;-53
2023/06/20 03:54:39;;;;;;;7.57;6.97;;;20.30;99.90;;;;;;5048791;28;20225;-53
2023/06/20 03:57:06;;;;;;;6.30;5.90;;;20.30;99.90;;;;;;5027807;28;20194;-52
2023/06/20 03:59:33;;;;;;;6.27;5.87;;;20.20;99.90;;;;;;5038809;28;20729;-53
2023/06/20 04:02:00;;;;;;;6.13;5.77;;;20.20;99.90;;;;;;5052109;28;20275;-53
2023/06/20 04:04:29;;;;;;;6.77;6.17;;;20.20;99.90;;;;;;5031189;28;20215;-53
2023/06/20 04:06:56;;;;;;;6.77;6.30;;;20.30;99.90;;;;;;5013155;28;20204;-52
2023/06/20 04:09:25;;;;;;;8.33;7.53;;;20.20;99.90;;;;;;5038750;28;20198;-54
2023/06/20 04:11:54;;;;;;;7.50;6.87;;;20.20;99.90;;;;;;5029444;28;20206;-53
2023/06/20 04:14:21;;;;;;;7.03;6.53;;;20.20;99.90;;;;;;5029207;28;20708;-52
2023/06/20 04:16:49;;;;;;;6.90;6.37;;;20.20;99.90;;;;;;5049278;28;20345;-52
2023/06/20 04:19:16;;;;;;;6.70;6.20;;;20.10;99.90;;;;;;5050102;28;20645;-51
2023/06/20 04:21:43;;;;;;;10.07;9.13;;;20.10;99.90;;;;;;5038137;28;20199;-52
2023/06/20 04:24:11;;;;;;;9.10;8.30;;;20.10;99.90;;;;;;5051539;28;20252;-52
2023/06/20 04:26:37;;;;;;;8.93;8.13;;;20.10;99.90;;;;;;5044493;28;20229;-52
2023/06/20 04:29:06;;;;;;;9.13;8.47;;;20.10;99.90;;;;;;5043014;28;20197;-52
2023/06/20 04:31:33;;;;;;;8.80;8.10;;;20.10;99.90;;;;;;5039631;28;20194;-52
2023/06/20 04:34:00;;;;;;;9.13;8.33;;;20.00;99.90;;;;;;5032513;28;20257;-53
2023/06/20 04:36:28;;;;;;;10.67;9.43;;;19.90;99.90;;;;;;5031893;28;20202;-52
2023/06/20 04:38:55;;;;;;;8.47;7.80;;;19.90;99.90;;;;;;5031611;28;20214;-53
2023/06/20 04:41:22;;;;;;;9.63;8.80;;;19.90;99.90;;;;;;5027926;28;20224;-52
2023/06/20 04:43:49;;;;;;;10.07;9.07;;;19.90;99.90;;;;;;5031989;28;20199;-52
2023/06/20 04:46:17;;;;;;;9.23;8.47;;;19.90;99.90;;;;;;5051432;28;20222;-52
2023/06/20 04:48:46;;;;;;;9.30;8.60;;;19.90;99.90;;;;;;5051518;28;20202;-52
2023/06/20 04:51:16;;;;;;;10.40;9.37;;;19.90;99.90;;;;;;5051540;28;20208;-52
2023/06/20 04:53:43;;;;;;;11.33;10.23;;;19.90;99.90;;;;;;5041156;28;20656;-51
2023/06/20 04:56:09;;;;;;;9.73;8.83;;;19.90;99.90;;;;;;5032079;28;20809;-51
2023/06/20 04:58:36;;;;;;;10.10;9.40;;;19.90;99.90;;;;;;5035308;28;20198;-52
2023/06/20 05:01:04;;;;;;;10.47;9.47;;;20.00;99.90;;;;;;5038357;28;20194;-52
2023/06/20 05:03:32;;;;;;;10.20;9.27;;;20.10;99.90;;;;;;5040019;28;20206;-52
2023/06/20 05:05:59;;;;;;;9.00;8.20;;;20.10;99.90;;;;;;5046924;28;20214;-52
2023/06/20 05:08:26;;;;;;;9.50;8.53;;;20.10;99.90;;;;;;5033102;28;20203;-52
2023/06/20 05:10:53;;;;;;;8.80;8.20;;;20.20;99.90;;;;;;5035036;28;20273;-52
2023/06/20 05:13:21;;;;;;;8.83;8.13;;;20.30;99.90;;;;;;5034826;28;20198;-53
2023/06/20 05:15:48;;;;;;;7.97;7.33;;;20.30;99.90;;;;;;5068969;22;20225;-53
2023/06/20 05:18:15;;;;;;;10.17;9.30;;;20.40;99.90;;;;;;5053045;28;20202;-53
2023/06/20 05:20:43;;;;;;;10.47;9.23;;;20.60;99.90;;;;;;5053048;28;20206;-53
2023/06/20 05:23:10;;;;;;;9.20;8.40;;;20.80;99.90;;;;;;5045770;28;20276;-53
2023/06/20 05:25:37;;;;;;;8.70;8.00;;;21.50;99.90;;;;;;5052317;28;20290;-53
2023/06/20 05:28:05;;;;;;;8.83;8.13;;;22.30;99.90;;;;;;5053045;28;20202;-54
2023/06/20 05:30:31;;;;;;;6.93;6.53;;;23.20;99.90;;;;;;5053183;28;20202;-53
2023/06/20 05:32:58;;;;;;;8.77;8.07;;;23.30;99.90;;;;;;5052655;28;20245;-54
2023/06/20 05:35:25;;;;;;;7.70;6.93;;;23.00;99.90;;;;;;5051477;28;20594;-53
2023/06/20 05:37:54;;;;;;;6.40;6.00;;;23.10;99.90;;;;;;5054288;28;20312;-53
2023/06/20 05:40:20;;;;;;;8.43;6.87;;;23.50;99.90;;;;;;5052981;28;20197;-53
2023/06/20 05:42:47;;;;;;;6.10;5.67;;;24.40;99.90;;;;;;5052592;28;20202;-53
2023/06/20 05:45:14;;;;;;;6.20;5.70;;;25.00;99.90;;;;;;5052504;28;20693;-55
2023/06/20 05:47:44;;;;;;;6.87;6.37;;;25.00;99.90;;;;;;5052634;28;20206;-54
2023/06/20 05:50:11;;;;;;;6.30;5.90;;;24.90;99.90;;;;;;5051746;28;20248;-53
2023/06/20 05:52:38;;;;;;;7.30;6.70;;;25.30;99.90;;;;;;5051503;28;20308;-53
2023/06/20 05:55:07;;;;;;;8.73;7.97;;;25.00;99.90;;;;;;5052524;28;20249;-54
2023/06/20 05:57:34;;;;;;;9.03;7.00;;;25.30;99.90;;;;;;5052252;28;20671;-53
2023/06/20 06:00:06;;;;;;;7.00;6.30;;;25.70;99.90;;;;;;5052443;28;20206;-53
2023/06/20 06:02:33;;;;;;;6.60;6.20;;;26.30;99.90;;;;;;5052114;28;20205;-53
2023/06/20 06:05:00;;;;;;;6.97;6.47;;;26.60;99.90;;;;;;5043029;28;20218;-54
2023/06/20 06:07:30;;;;;;;6.27;5.87;;;26.90;99.90;;;;;;5050297;28;20198;-53
2023/06/20 06:09:57;;;;;;;6.50;5.90;;;27.20;99.90;;;;;;5048807;28;20259;-53
2023/06/20 06:12:25;;;;;;;6.23;5.67;;;27.30;99.90;;;;;;5050159;28;20562;-54
2023/06/20 06:14:52;;;;;;;6.63;6.17;;;27.70;99.90;;;;;;5051532;28;20597;-55
2023/06/20 06:17:22;;;;;;;5.90;5.50;;;27.50;99.90;;;;;;5050639;28;20251;-53
2023/06/20 06:19:49;;;;;;;6.85;5.78;;;27.70;99.90;;;;;;5051243;28;20202;-53
2023/06/20 06:22:20;;;;;;;6.68;6.20;;;27.90;99.90;;;;;;5050500;28;20202;-53
2023/06/20 06:24:47;;;;;;;6.30;5.80;;;28.20;99.90;;;;;;5050923;28;20267;-53
2023/06/20 06:27:14;;;;;;;5.82;5.30;;;28.30;99.90;;;;;;5051862;28;20198;-54
2023/06/20 06:29:42;;;;;;;6.03;5.63;;;28.30;99.90;;;;;;5051940;28;20202;-53
2023/06/20 06:32:09;;;;;;;5.85;5.45;;;28.40;99.90;;;;;;5051327;28;20204;-53
2023/06/20 06:34:36;;;;;;;6.13;5.68;;;28.70;99.90;;;;;;5050891;28;20197;-53
2023/06/20 06:37:03;;;;;;;5.32;5.13;;;29.20;99.90;;;;;;5051549;28;20256;-54
2023/06/20 06:39:31;;;;;;;5.90;5.53;;;29.30;99.90;;;;;;5050577;28;20228;-54
2023/06/20 06:41:58;;;;;;;5.38;5.13;;;29.70;99.90;;;;;;5050801;28;20248;-54
2023/06/20 06:44:25;;;;;;;5.75;5.28;;;30.30;99.90;;;;;;5049401;28;20263;-54
2023/06/20 06:46:53;;;;;;;5.78;5.47;;;30.50;99.90;;;;;;5051598;28;20244;-54
2023/06/20 06:49:20;;;;;;;4.75;4.45;;;30.70;99.90;;;;;;5051806;28;20252;-54
2023/06/20 06:51:47;;;;;;;5.63;5.20;;;30.60;99.90;;;;;;5050843;28;20206;-54
2023/06/20 06:54:13;;;;;;;5.70;5.25;;;31.00;99.90;;;;;;5049816;28;20255;-54
2023/06/20 06:56:40;;;;;;;6.28;5.72;;;30.90;99.90;;;;;;5051001;28;20253;-54
2023/06/20 06:59:07;;;;;;;4.70;4.45;;;30.50;99.90;;;;;;5051495;28;20198;-55
2023/06/20 07:01:34;;;;;;;6.07;5.53;;;30.80;99.90;;;;;;5051161;28;20205;-54
2023/06/20 07:04:03;;;;;;;4.97;4.78;;;30.70;99.90;;;;;;5048989;28;20201;-54
2023/06/20 07:06:30;;;;;;;5.20;4.90;;;30.40;99.90;;;;;;5047246;28;20228;-55
2023/06/20 07:08:57;;;;;;;5.78;5.47;;;31.00;99.90;;;;;;5057161;28;20205;-54
2023/06/20 07:11:24;;;;;;;5.15;4.90;;;31.10;99.90;;;;;;5051276;28;20263;-54
2023/06/20 07:13:51;;;;;;;14.25;5.88;;;31.20;99.90;;;;;;5048533;28;20197;-54
2023/06/20 07:16:18;;;;;;;6.13;5.75;;;31.10;99.90;;;;;;5050499;28;20221;-54
2023/06/20 07:18:45;;;;;;;5.32;5.03;;;31.70;99.90;;;;;;5050557;28;20267;-54
2023/06/20 07:21:13;;;;;;;5.45;4.78;;;31.80;99.90;;;;;;5051105;28;20675;-54
2023/06/20 07:23:40;;;;;;;5.22;5.03;;;32.00;99.90;;;;;;5049724;28;20572;-54
2023/06/20 07:26:07;;;;;;;5.35;5.03;;;32.10;99.90;;;;;;5051043;28;20222;-54
2023/06/20 07:28:35;;;;;;;5.20;5.00;;;32.20;99.90;;;;;;5051045;28;20217;-55
2023/06/20 07:31:02;;;;;;;5.25;5.05;;;32.00;99.90;;;;;;5050832;28;20252;-54
2023/06/20 07:33:29;;;;;;;5.75;5.13;;;32.00;99.90;;;;;;5050547;28;20206;-54
2023/06/20 07:35:56;;;;;;;5.90;5.45;;;31.80;99.90;;;;;;5050544;28;20222;-54
2023/06/20 07:38:24;;;;;;;5.82;5.35;;;31.80;99.90;;;;;;5050517;28;20569;-54
2023/06/20 07:40:51;;;;;;;5.30;5.07;;;31.40;99.90;;;;;;5041346;28;20699;-54
2023/06/20 07:43:19;;;;;;;6.30;5.85;;;31.40;99.90;;;;;;5050474;28;20198;-54
2023/06/20 07:45:46;;;;;;;8.40;5.30;;;31.40;99.90;;;;;;5050393;28;20722;-54
2023/06/20 07:48:13;;;;;;;5.00;4.80;;;31.30;99.90;;;;;;5050494;28;20255;-54
2023/06/20 07:50:40;;;;;;;5.45;5.20;;;31.60;99.90;;;;;;5050547;28;20251;-54
2023/06/20 07:53:07;;;;;;;5.50;5.13;;;31.60;99.90;;;;;;5050002;28;20311;-54
2023/06/20 07:55:36;;;;;;;4.95;4.68;;;31.80;99.90;;;;;;5049358;28;20229;-55
2023/06/20 07:58:04;;;;;;;5.68;5.28;;;32.10;99.90;;;;;;5050054;28;20539;-55
2023/06/20 08:00:31;;;;;;;5.13;4.22;;;32.60;99.90;;;;;;5050074;28;20695;-54
2023/06/20 08:02:57;;;;;;;6.72;5.88;;;33.00;99.90;;;;;;5049868;28;20202;-54
2023/06/20 08:05:24;;;;;;;6.00;5.60;;;33.00;99.90;;;;;;5048826;28;20634;-54
2023/06/20 08:07:51;;;;;;;4.60;4.40;;;33.40;99.90;;;;;;5049857;28;20194;-54
2023/06/20 08:10:19;;;;;;;4.95;4.75;;;33.90;99.90;;;;;;5050010;28;20202;-54
2023/06/20 08:12:47;;;;;;;5.50;5.20;;;34.40;99.90;;;;;;5046519;28;20201;-54
2023/06/20 08:15:14;;;;;;;5.55;5.13;;;34.20;99.90;;;;;;5049584;28;20317;-54
2023/06/20 08:17:41;;;;;;;4.90;4.65;;;33.80;99.90;;;;;;5049821;28;20283;-54
2023/06/20 08:20:09;;;;;;;4.65;4.35;;;33.40;99.90;;;;;;5049577;28;20201;-55
2023/06/20 08:22:36;;;;;;;5.22;4.75;;;33.60;99.90;;;;;;5049868;28;20201;-54
2023/06/20 08:25:03;;;;;;;5.15;4.95;;;33.90;99.90;;;;;;5049626;28;20233;-55
2023/06/20 08:27:30;;;;;;;4.18;4.03;;;33.60;98.10;;;;;;5049734;28;20670;-54
2023/06/20 08:29:59;;;;;;;4.20;4.00;;;33.60;99.90;;;;;;5054026;28;20258;-54
2023/06/20 08:32:26;;;;;;;5.72;4.93;;;33.90;99.90;;;;;;5068918;28;20559;-54
2023/06/20 08:34:53;;;;;;;5.07;4.80;;;33.80;99.20;;;;;;5069394;28;20225;-55
2023/06/20 08:37:21;;;;;;;4.47;4.18;;;33.90;99.60;;;;;;5069924;28;20229;-54
2023/06/20 08:39:48;;;;;;;4.63;4.43;;;33.80;99.90;;;;;;5069996;28;20215;-54
2023/06/20 08:42:15;;;;;;;5.20;4.82;;;33.90;98.50;;;;;;5061467;28;20641;-54
2023/06/20 08:44:43;;;;;;;4.60;4.40;;;34.60;99.90;;;;;;5048856;28;20202;-54
2023/06/20 08:47:11;;;;;;;6.18;5.60;;;35.00;98.00;;;;;;5049499;28;20197;-54
2023/06/20 08:49:39;;;;;;;4.80;4.60;;;35.50;96.10;;;;;;5047436;28;20622;-54
2023/06/20 08:52:11;;;;;;;5.85;5.50;;;35.80;96.90;;;;;;5049568;28;20244;-54
2023/06/20 08:54:42;;;;;;;4.95;4.63;;;35.50;98.60;;;;;;5049643;28;20202;-54
2023/06/20 08:57:09;;;;;;;5.25;5.00;;;35.60;97.20;;;;;;5049846;28;20538;-54
2023/06/20 08:59:36;;;;;;;5.35;5.20;;;36.10;98.90;;;;;;5046605;28;20202;-54
2023/06/20 09:02:03;;;;;;;5.60;5.25;;;35.80;97.40;;;;;;5049360;28;20206;-56
2023/06/20 09:04:32;;;;;;;5.82;5.32;;;35.70;99.90;;;;;;5049179;28;20201;-54
2023/06/20 09:07:01;;;;;;;6.00;5.50;;;35.70;96.80;;;;;;5048326;28;20586;-54
2023/06/20 09:09:28;;;;;;;5.65;5.45;;;36.10;97.40;;;;;;5047195;28;20206;-54
2023/06/20 09:11:58;;;;;;;5.72;5.40;;;35.90;93.90;;;;;;5049294;28;20254;-54
2023/06/20 09:14:27;;;;;;;6.18;5.57;;;36.00;94.00;;;;;;5049188;28;20205;-54
2023/06/20 09:16:54;;;;;;;5.57;5.18;;;36.10;93.20;;;;;;5049089;28;20296;-54
2023/06/20 09:19:21;;;;;;;7.05;6.57;;;35.90;93.70;;;;;;5048321;28;20202;-54
2023/06/20 09:21:50;;;;;;;6.15;5.72;;;36.20;95.80;;;;;;5049155;28;20676;-54
2023/06/20 09:24:19;;;;;;;5.78;5.38;;;36.00;95.80;;;;;;5049284;28;20631;-54
2023/06/20 09:26:47;;;;;;;5.82;5.40;;;35.70;94.10;;;;;;5049267;28;20217;-54
2023/06/20 09:29:16;;;;;;;4.85;4.65;;;35.80;96.60;;;;;;5047584;28;20206;-54
2023/06/20 09:31:44;;;;;;;5.22;5.03;;;35.70;97.30;;;;;;5048976;28;20244;-54
2023/06/20 09:34:12;;;;;;;4.90;4.75;;;36.10;96.50;;;;;;5047819;28;20193;-54
2023/06/20 09:36:40;;;;;;;4.78;4.43;;;36.30;92.70;;;;;;5049181;28;20284;-54
2023/06/20 09:39:12;;;;;;;4.93;4.63;;;36.10;92.50;;;;;;5046976;28;20585;-54
2023/06/20 09:41:44;;;;;;;5.35;4.90;;;36.60;95.50;;;;;;5049220;28;20194;-54
2023/06/20 09:44:12;;;;;;;6.25;5.65;;;36.60;94.40;;;;;;5031795;28;20272;-55
2023/06/20 09:46:39;;;;;;;5.65;5.25;;;36.70;94.30;;;;;;5032795;28;20229;-55
2023/06/20 09:49:06;;;;;;;5.30;5.03;;;36.40;90.80;;;;;;5032729;28;20206;-56
2023/06/20 09:51:35;;;;;;;4.75;4.35;;;36.30;91.90;;;;;;5032533;28;20652;-54
2023/06/20 09:54:05;;;;;;;5.95;5.32;;;36.50;96.00;;;;;;5051320;28;20201;-54
2023/06/20 09:56:40;;;;;;;4.45;4.18;;;36.60;91.80;;;;;;5052257;28;20303;-54
2023/06/20 09:59:09;;;;;;;5.47;5.20;;;36.80;92.60;;;;;;5051511;28;20307;-54
2023/06/20 10:01:38;;;;;;;5.78;5.47;;;36.60;92.70;;;;;;5052333;28;20198;-54
2023/06/20 10:04:06;;;;;;;5.97;5.20;;;37.10;90.20;;;;;;5050753;28;20194;-54
2023/06/20 10:06:37;;;;;;;5.22;5.03;;;37.00;91.40;;;;;;5047408;28;20214;-54
2023/06/20 10:09:05;;;;;;;5.97;5.57;;;37.20;90.10;;;;;;5052323;28;20202;-54
2023/06/20 10:11:34;;;;;;;5.30;5.03;;;36.90;91.20;;;;;;5052189;28;20273;-54
2023/06/20 10:14:03;;;;;;;4.70;4.50;;;37.10;92.10;;;;;;5051638;28;20523;-55
2023/06/20 10:16:30;;;;;;;5.15;4.95;;;37.10;92.10;;;;;;5051725;28;20232;-54
2023/06/20 10:18:57;;;;;;;5.05;4.65;;;36.90;87.80;;;;;;5050261;28;20194;-55
2023/06/20 10:21:57;;;;;;;4.90;4.50;;;37.20;87.20;;;;;;5050844;28;20620;-54
2023/06/20 10:24:26;;;;;;;4.80;4.60;;;36.90;91.80;;;;;;5051827;28;20206;-55
2023/06/20 10:26:59;;;;;;;4.80;4.55;;;37.10;86.90;;;;;;5052087;28;20205;-55
2023/06/20 10:29:26;;;;;;;4.72;4.45;;;37.40;87.40;;;;;;5048922;28;20209;-54
2023/06/20 10:32:02;;;;;;;4.50;4.22;;;37.50;84.50;;;;;;5051808;28;20193;-54
2023/06/20 10:34:33;;;;;;;4.68;4.25;;;37.50;84.50;;;;;;5050088;28;20201;-54
2023/06/20 10:37:14;;;;;;;4.22;3.72;;;37.40;84.60;;;;;;5050950;28;20253;-54
2023/06/20 10:39:52;;;;;;;4.60;4.30;;;36.90;85.10;;;;;;5051515;28;20213;-54
2023/06/20 10:42:38;;;;;;;4.68;4.35;;;36.90;85.10;;;;;;5050675;28;20202;-54
2023/06/20 10:45:23;;;;;;;4.57;4.38;;;36.70;84.40;;;;;;5050786;28;20300;-54
2023/06/20 10:47:51;;;;;;;4.60;4.20;;;36.70;84.00;;;;;;5051246;28;20205;-54
2023/06/20 10:50:18;;;;;;;3.90;3.60;;;36.70;82.30;;;;;;5051909;28;20198;-54
2023/06/20 10:52:45;;;;;;;5.50;4.60;;;36.40;83.00;;;;;;5051809;28;20202;-54
2023/06/20 10:55:15;;;;;;;4.85;4.47;;;36.20;84.30;;;;;;5048825;28;20239;-54
2023/06/20 10:57:47;;;;;;;4.85;4.50;;;35.90;84.70;;;;;;5051313;28;20205;-54
2023/06/20 11:00:17;;;;;;;6.97;4.60;;;35.70;86.50;;;;;;5051380;28;20335;-54
2023/06/20 11:02:45;;;;;;;5.28;4.28;;;35.40;86.00;;;;;;5051409;28;20206;-54
2023/06/20 11:05:12;;;;;;;4.55;4.30;;;35.30;87.70;;;;;;5051478;28;20225;-54
2023/06/20 11:07:52;;;;;;;5.28;4.75;;;35.00;86.80;;;;;;5049375;28;20259;-54
2023/06/20 11:10:20;;;;;;;9.13;5.47;;;35.00;91.60;;;;;;5044586;28;20694;-54
2023/06/20 11:12:49;;;;;;;11.27;5.10;;;34.90;90.70;;;;;;5049937;28;20300;-54
2023/06/20 11:15:27;;;;;;;5.70;5.18;;;34.70;91.00;;;;;;5051046;28;20225;-54
2023/06/20 11:17:55;;;;;;;6.13;5.10;;;34.50;90.00;;;;;;5050886;28;20210;-54
2023/06/20 11:20:24;;;;;;;6.10;5.07;;;34.50;91.90;;;;;;5050711;28;20590;-54
2023/06/20 11:22:53;;;;;;;6.07;5.05;;;34.60;91.20;;;;;;5049270;28;20594;-54
2023/06/20 11:25:24;;;;;;;6.28;5.03;;;34.90;91.80;;;;;;5050023;28;20221;-54
2023/06/20 11:27:53;;;;;;;5.22;5.00;;;34.70;91.00;;;;;;5067779;22;20662;-54
2023/06/20 11:30:30;;;;;;;5.32;4.93;;;34.90;92.20;;;;;;5039507;28;20252;-54
2023/06/20 11:33:07;;;;;;;5.90;5.60;;;34.90;91.10;;;;;;5045059;28;20214;-54
2023/06/20 11:35:45;;;;;;;6.10;5.75;;;34.60;94.40;;;;;;5027374;28;20280;-53
2023/06/20 11:38:14;;;;;;;5.35;4.85;;;34.00;95.80;;;;;;5021827;28;20218;-53
2023/06/20 11:40:42;;;;;;;5.22;5.03;;;34.00;95.60;;;;;;5033970;28;20195;-54
2023/06/20 11:43:21;;;;;;;5.00;4.55;;;33.90;95.20;;;;;;5035117;28;20199;-54
2023/06/20 11:45:48;;;;;;;4.38;3.95;;;33.90;94.00;;;;;;5039496;28;20241;-53
2023/06/20 11:48:16;;;;;;;4.88;4.68;;;34.00;96.50;;;;;;5042510;28;20264;-54
2023/06/20 11:50:45;;;;;;;5.15;4.75;;;34.00;94.60;;;;;;5037616;28;20278;-54
2023/06/20 11:53:20;;;;;;;8.30;5.43;;;34.00;93.80;;;;;;5037041;28;20276;-53
2023/06/20 11:55:51;;;;;;;4.82;4.20;;;33.80;94.30;;;;;;5031552;28;20244;-54
2023/06/20 11:58:20;;;;;;;5.57;5.13;;;33.80;94.20;;;;;;5040999;28;20249;-53
2023/06/20 12:00:48;;;;;;;5.30;4.47;;;33.70;93.20;;;;;;5041792;28;20204;-54
2023/06/20 12:03:21;;;;;;;5.93;5.38;;;33.50;93.00;;;;;;5039091;28;21052;-54
2023/06/20 12:05:48;;;;;;;5.80;5.40;;;33.30;92.30;;;;;;5044371;28;20684;-53
2023/06/20 12:08:15;;;;;;;6.35;4.20;;;33.30;93.50;;;;;;5028233;28;20219;-54
2023/06/20 12:10:48;;;;;;;6.40;5.50;;;33.30;94.30;;;;;;5025024;28;20202;-54
2023/06/20 12:13:16;;;;;;;6.60;5.10;;;33.30;94.90;;;;;;5039137;28;20260;-53
2023/06/20 12:15:47;;;;;;;7.20;4.75;;;33.30;96.90;;;;;;5038647;28;20202;-53
2023/06/20 12:18:14;;;;;;;5.75;5.35;;;33.20;95.90;;;;;;5031938;28;20815;-53
2023/06/20 12:20:41;;;;;;;5.82;4.85;;;33.10;96.60;;;;;;5037055;28;20240;-53
2023/06/20 12:23:08;;;;;;;5.57;5.07;;;33.20;97.10;;;;;;5020835;28;20722;-53
2023/06/20 12:25:35;;;;;;;5.07;4.60;;;33.40;97.20;;;;;;5039883;28;20199;-53
2023/06/20 12:28:02;;;;;;;4.72;4.47;;;33.40;95.90;;;;;;5040641;28;20225;-54
2023/06/20 12:30:30;;;;;;;5.13;4.60;;;33.40;94.90;;;;;;5041594;28;20248;-53
2023/06/20 12:32:59;;;;;;;5.15;4.60;;;33.40;96.00;;;;;;5040361;28;20664;-54
2023/06/20 12:35:27;;;;;;;4.85;4.63;;;33.20;95.90;;;;;;5037284;28;20194;-54
2023/06/20 12:37:54;;;;;;;5.85;5.32;;;33.00;97.10;;;;;;5031540;28;20266;-54
2023/06/20 12:40:20;;;;;;;5.07;4.57;;;33.10;95.40;;;;;;5041250;28;20202;-54
2023/06/20 12:42:47;;;;;;;4.80;4.40;;;33.00;94.80;;;;;;5036226;28;20818;-53
2023/06/20 12:45:14;;;;;;;5.43;4.97;;;33.00;94.90;;;;;;5042082;28;20205;-54
2023/06/20 12:47:41;;;;;;;5.03;4.70;;;33.00;97.20;;;;;;5042281;28;20213;-54
2023/06/20 12:50:10;;;;;;;5.72;5.28;;;33.00;96.10;;;;;;5029440;28;20198;-53
2023/06/20 12:52:37;;;;;;;4.72;4.40;;;33.10;94.60;;;;;;5029352;28;20190;-54
2023/06/20 12:55:05;;;;;;;5.78;5.07;;;33.10;96.10;;;;;;5051062;28;20201;-54